Strona główna
METAR-TAF:

METAR-TAF

Lotnisko :

Port lotniczy Brześć

Brześć, Białoruś

Szerokość geograficzna: 52-06-30N, Długość geograficzna: 023-53-48E, wysokość: 143 m

Aktualna obserwacja pogody

Raport powstał 16 minut temu, godzina 08:30 UTC
Wiatr 6 kt od zachodnio-północny zachód
Temperatura 5°C
Wilgotność 60%
Ciśnienie 1022 hPa
Widzialność 10 km lub więcej
Zachmurzenie całkowite na wysokości 4300 ft

METAR: UMBB 230830Z 29003MPS 9999 OVC043 05/M02 Q1022 NOSIG

czas: 11:46 (08:46 UTC)

Prognoza

Raport powstał 46 minut temu, godzina 08:00 UTC
Prognoza ważna od 23 godzina 09 UTC do 23 godzina 18 UTC
Wiatr 4 kt z kierunków zmiennych
Widzialność: 8000 m
Przerywane chmury na wysokości 2000 ft
Przejściowo
od 23 godzina 09 UTC do 23 godzina 15 UTC
Wiatr 6 kt od południowy zachód
Przerywane chmury na wysokości 1100 ft

TAF: UMBB 230800Z 2309/2318 VRB02MPS 8000 BKN020 TEMPO 2309/2315 23003MPS BKN011

Obserwacja i prognoza pogody dla ponad 4000 lotnisk (raport METAR i TAF).

Dostępne stacje oznaczono żółtymi i czerwonymi punktami na mapie.

Najedź kursorem aby zobaczyć nazwę stacji.

Kliknij aby zobaczyć obserwacje i prognozy pogody.

Aby zmienić mapę: kliknij na zielony przycisk z czarnym krzyżykiem, aby powiększyć; na zielony przycisk z myślnikiem, aby pomniejszyć; na zielone strzałki, aby przejść do map sąsiednich.


METAR-TAF: